East Fairfield, Vermont
Current Conditions -  °F | °C
As of 9:15 AM on Thursday 29 Jan 2015 (Local Time) from KFSO Reporting Station
Clear Clear  
Wind Chill:   Ceiling: Unl
Heat Index:   Visibility: 10mi
Dew Point: -4°   Wind: 3mph
Humidity: 61%   Direction: 130°SE
Pressure: 30.26"   Gusts: NA
Location:  44.78°N, 72.86°W
Report Text: KFSO 291415Z AUTO 13003KT 10SM CLR M14/M20 A3026 RMK AO2 T11421202
Loading
Personal Weather Stations






























Interactive Weather Map New forecast layout! Learn more

10-Day Weather Forecast

Advertisements
Track Severe Weather on mobile